Terminal Aerodrome Forecast
Issued by NWS

Home | Current Version | Previous Version | Text Only | Print | Product List | Glossary On
Versions: 1 2 3 4 5 6 7 8 9 10 11 12 13
000
FTUS41 KAKQ 211100
TAFPHF
TAF
KPHF 211124Z 2112/2212 02004KT P6SM OVC070
     FM211500 05005KT P6SM SCT070
     FM220600 06004KT P6SM OVC100
     FM220900 05005KT P6SM -RA OVC050=

USA.gov is the U.S. government's official web portal to all federal, state and local government web resources and services.